58TE weather

Mc Nabb Farm Airport
Ropesville, Texas, United States

Public forecast

Using degrees Fahrenheit for public forecast. Weather courtesy of forecast.io.

Closest aviation weather report (METAR) to Mc Nabb Farm Airport

Closest report is Lubbock Preston Smith International Airport, 20.0 nm (37.0 km) NE. Retrieved 2020/02/24 00:53 UTC (51 minutes ago):

KLBB 240053Z 28017KT 10SM FEW050 FEW100 FEW160 14/M03 A2979 RMK AO2 PK WND 28037/0005 RAB2356E05 SLP064 LGT BLDU ALQDS P0000 T01441033

Closest aviation forecast (TAF) to Mc Nabb Farm Airport

Closest forecast is Lubbock Preston Smith International Airport, 20.0 nm (37.0 km) NE. Retrieved 2020-02-24 00:22 UTC (1 hour ago):

TAF KLBB 232320Z 2400/2424 23025G40KT 6SM BLDU SCT100 FM240300 30018KT P6SM SKC